Cardoso, Brazil
Current Conditions -  °F | °C
As of 3:00 PM on Tuesday 21 Oct 2014 (Local Time) from SBSR Reporting Station
Broken Clouds Broken Clouds  
Wind Chill: 88°   Ceiling: 8000
Heat Index: 88°   Visibility: 6mi
Dew Point: 55°   Wind: 5mph
Humidity: 33%   Direction: 90°E
Pressure: 30.03"   Gusts: NA
Location:  20.08°S, 49.91°W
Report Text: SBSR 211700Z 09004KT 9999 SCT045 BKN080 31/13 Q1017
Loading
Personal Weather Stations






























Interactive Weather Map
Tropical Storm Tracking
New forecast layout! Learn more

10-Day Weather Forecast

Advertisements
Track Severe Weather on mobile